sensor_id;sensor_type;location;lat;lon;timestamp;temperature;humidity
4828;DHT22;2428;48.732;9.148;2023-09-30T00:01:11;16.80;99.90
4828;DHT22;2428;48.732;9.148;2023-09-30T00:03:37;16.80;99.90
4828;DHT22;2428;48.732;9.148;2023-09-30T00:06:03;16.90;99.90
4828;DHT22;2428;48.732;9.148;2023-09-30T00:08:29;16.80;99.90
4828;DHT22;2428;48.732;9.148;2023-09-30T00:10:55;16.90;99.90
4828;DHT22;2428;48.732;9.148;2023-09-30T00:13:20;16.80;99.90
4828;DHT22;2428;48.732;9.148;2023-09-30T00:15:47;16.80;99.90
4828;DHT22;2428;48.732;9.148;2023-09-30T00:18:12;16.80;99.90
4828;DHT22;2428;48.732;9.148;2023-09-30T00:20:39;16.70;99.90
4828;DHT22;2428;48.732;9.148;2023-09-30T00:23:04;16.70;99.90
4828;DHT22;2428;48.732;9.148;2023-09-30T00:25:32;16.70;99.90
4828;DHT22;2428;48.732;9.148;2023-09-30T00:27:58;16.60;99.90
4828;DHT22;2428;48.732;9.148;2023-09-30T00:30:24;16.60;99.90
4828;DHT22;2428;48.732;9.148;2023-09-30T00:32:49;16.60;99.90
4828;DHT22;2428;48.732;9.148;2023-09-30T00:35:15;16.50;99.90
4828;DHT22;2428;48.732;9.148;2023-09-30T00:37:41;16.50;99.90
4828;DHT22;2428;48.732;9.148;2023-09-30T00:40:08;16.50;99.90
4828;DHT22;2428;48.732;9.148;2023-09-30T00:42:38;16.50;99.90
4828;DHT22;2428;48.732;9.148;2023-09-30T00:45:04;16.50;99.90
4828;DHT22;2428;48.732;9.148;2023-09-30T00:47:31;16.40;99.90
4828;DHT22;2428;48.732;9.148;2023-09-30T00:49:57;16.40;99.90
4828;DHT22;2428;48.732;9.148;2023-09-30T00:52:23;16.40;99.90
4828;DHT22;2428;48.732;9.148;2023-09-30T00:54:49;16.40;99.90
4828;DHT22;2428;48.732;9.148;2023-09-30T00:57:17;16.40;99.90
4828;DHT22;2428;48.732;9.148;2023-09-30T00:59:44;16.40;99.90
4828;DHT22;2428;48.732;9.148;2023-09-30T01:02:09;16.40;99.90
4828;DHT22;2428;48.732;9.148;2023-09-30T01:04:35;16.30;99.90
4828;DHT22;2428;48.732;9.148;2023-09-30T01:07:02;16.40;99.90
4828;DHT22;2428;48.732;9.148;2023-09-30T01:09:27;16.40;99.90
4828;DHT22;2428;48.732;9.148;2023-09-30T01:11:53;16.30;99.90
4828;DHT22;2428;48.732;9.148;2023-09-30T01:14:29;16.30;99.90
4828;DHT22;2428;48.732;9.148;2023-09-30T01:16:55;16.40;99.90
4828;DHT22;2428;48.732;9.148;2023-09-30T01:19:21;16.40;99.90
4828;DHT22;2428;48.732;9.148;2023-09-30T01:21:54;16.30;99.90
4828;DHT22;2428;48.732;9.148;2023-09-30T01:24:21;16.40;99.90
4828;DHT22;2428;48.732;9.148;2023-09-30T01:26:47;16.40;99.90
4828;DHT22;2428;48.732;9.148;2023-09-30T01:29:14;16.40;99.90
4828;DHT22;2428;48.732;9.148;2023-09-30T01:31:39;16.40;99.90
4828;DHT22;2428;48.732;9.148;2023-09-30T01:34:05;16.40;99.90
4828;DHT22;2428;48.732;9.148;2023-09-30T01:36:31;16.40;99.90
4828;DHT22;2428;48.732;9.148;2023-09-30T01:38:57;16.30;99.90
4828;DHT22;2428;48.732;9.148;2023-09-30T01:41:23;16.30;99.90
4828;DHT22;2428;48.732;9.148;2023-09-30T01:43:49;16.30;99.90
4828;DHT22;2428;48.732;9.148;2023-09-30T01:46:15;16.30;99.90
4828;DHT22;2428;48.732;9.148;2023-09-30T01:48:40;16.30;99.90
4828;DHT22;2428;48.732;9.148;2023-09-30T01:51:06;16.20;99.90
4828;DHT22;2428;48.732;9.148;2023-09-30T01:53:32;16.20;99.90
4828;DHT22;2428;48.732;9.148;2023-09-30T01:55:58;16.20;99.90
4828;DHT22;2428;48.732;9.148;2023-09-30T01:58:24;16.10;99.90
4828;DHT22;2428;48.732;9.148;2023-09-30T02:00:51;16.10;99.90
4828;DHT22;2428;48.732;9.148;2023-09-30T02:03:17;16.00;99.90
4828;DHT22;2428;48.732;9.148;2023-09-30T02:05:43;15.90;99.90
4828;DHT22;2428;48.732;9.148;2023-09-30T02:08:08;15.90;99.90
4828;DHT22;2428;48.732;9.148;2023-09-30T02:10:34;15.80;99.90
4828;DHT22;2428;48.732;9.148;2023-09-30T02:13:00;15.80;99.90
4828;DHT22;2428;48.732;9.148;2023-09-30T02:15:26;15.70;99.90
4828;DHT22;2428;48.732;9.148;2023-09-30T02:17:52;15.70;99.90
4828;DHT22;2428;48.732;9.148;2023-09-30T02:20:17;15.60;99.90
4828;DHT22;2428;48.732;9.148;2023-09-30T02:22:47;15.60;99.90
4828;DHT22;2428;48.732;9.148;2023-09-30T02:25:13;15.50;99.90
4828;DHT22;2428;48.732;9.148;2023-09-30T02:27:40;15.50;99.90
4828;DHT22;2428;48.732;9.148;2023-09-30T02:30:07;15.50;99.90
4828;DHT22;2428;48.732;9.148;2023-09-30T02:32:33;15.40;99.90
4828;DHT22;2428;48.732;9.148;2023-09-30T02:34:59;15.40;99.90
4828;DHT22;2428;48.732;9.148;2023-09-30T02:37:24;15.40;99.90
4828;DHT22;2428;48.732;9.148;2023-09-30T02:39:51;15.40;99.90
4828;DHT22;2428;48.732;9.148;2023-09-30T02:42:16;15.40;99.90
4828;DHT22;2428;48.732;9.148;2023-09-30T02:44:42;15.40;99.90
4828;DHT22;2428;48.732;9.148;2023-09-30T02:47:08;15.40;99.90
4828;DHT22;2428;48.732;9.148;2023-09-30T02:49:34;15.40;99.90
4828;DHT22;2428;48.732;9.148;2023-09-30T02:52:00;15.40;99.90
4828;DHT22;2428;48.732;9.148;2023-09-30T02:54:26;15.40;99.90
4828;DHT22;2428;48.732;9.148;2023-09-30T02:56:52;15.40;99.90
4828;DHT22;2428;48.732;9.148;2023-09-30T02:59:20;15.40;99.90
4828;DHT22;2428;48.732;9.148;2023-09-30T03:01:47;15.60;99.90
4828;DHT22;2428;48.732;9.148;2023-09-30T03:04:13;15.50;99.90
4828;DHT22;2428;48.732;9.148;2023-09-30T03:06:39;15.50;99.90
4828;DHT22;2428;48.732;9.148;2023-09-30T03:09:04;15.50;99.90
4828;DHT22;2428;48.732;9.148;2023-09-30T03:11:31;15.50;99.90
4828;DHT22;2428;48.732;9.148;2023-09-30T03:13:57;15.50;99.90
4828;DHT22;2428;48.732;9.148;2023-09-30T03:16:23;15.50;99.90
4828;DHT22;2428;48.732;9.148;2023-09-30T03:18:50;15.60;99.90
4828;DHT22;2428;48.732;9.148;2023-09-30T03:21:16;15.70;99.90
4828;DHT22;2428;48.732;9.148;2023-09-30T03:23:43;15.60;99.90
4828;DHT22;2428;48.732;9.148;2023-09-30T03:26:09;15.70;99.90
4828;DHT22;2428;48.732;9.148;2023-09-30T03:28:38;15.70;99.90
4828;DHT22;2428;48.732;9.148;2023-09-30T03:31:04;15.70;99.90
4828;DHT22;2428;48.732;9.148;2023-09-30T03:33:34;15.70;99.90
4828;DHT22;2428;48.732;9.148;2023-09-30T03:36:00;15.70;99.90
4828;DHT22;2428;48.732;9.148;2023-09-30T03:38:26;15.60;99.90
4828;DHT22;2428;48.732;9.148;2023-09-30T03:40:52;15.60;99.90
4828;DHT22;2428;48.732;9.148;2023-09-30T03:43:20;15.60;99.90
4828;DHT22;2428;48.732;9.148;2023-09-30T03:45:46;15.70;99.90
4828;DHT22;2428;48.732;9.148;2023-09-30T03:48:12;15.60;99.90
4828;DHT22;2428;48.732;9.148;2023-09-30T03:50:38;15.60;99.90
4828;DHT22;2428;48.732;9.148;2023-09-30T03:53:04;15.60;99.90
4828;DHT22;2428;48.732;9.148;2023-09-30T03:55:30;15.50;99.90
4828;DHT22;2428;48.732;9.148;2023-09-30T03:57:57;15.60;99.90
4828;DHT22;2428;48.732;9.148;2023-09-30T04:00:23;15.60;99.90
4828;DHT22;2428;48.732;9.148;2023-09-30T04:02:50;15.50;99.90
4828;DHT22;2428;48.732;9.148;2023-09-30T04:05:19;15.50;99.90
4828;DHT22;2428;48.732;9.148;2023-09-30T04:07:44;15.50;99.90
4828;DHT22;2428;48.732;9.148;2023-09-30T04:10:10;15.50;99.90
4828;DHT22;2428;48.732;9.148;2023-09-30T04:12:36;15.50;99.90
4828;DHT22;2428;48.732;9.148;2023-09-30T04:15:02;15.50;99.90
4828;DHT22;2428;48.732;9.148;2023-09-30T04:17:29;15.40;99.90
4828;DHT22;2428;48.732;9.148;2023-09-30T04:19:54;15.50;99.90
4828;DHT22;2428;48.732;9.148;2023-09-30T04:22:20;15.50;99.90
4828;DHT22;2428;48.732;9.148;2023-09-30T04:24:50;15.40;99.90
4828;DHT22;2428;48.732;9.148;2023-09-30T04:27:16;15.50;99.90
4828;DHT22;2428;48.732;9.148;2023-09-30T04:29:42;15.50;99.90
4828;DHT22;2428;48.732;9.148;2023-09-30T04:32:07;15.50;99.90
4828;DHT22;2428;48.732;9.148;2023-09-30T04:34:33;15.40;99.90
4828;DHT22;2428;48.732;9.148;2023-09-30T04:36:58;15.40;99.90
4828;DHT22;2428;48.732;9.148;2023-09-30T04:39:25;15.40;99.90
4828;DHT22;2428;48.732;9.148;2023-09-30T04:41:51;15.40;99.90
4828;DHT22;2428;48.732;9.148;2023-09-30T04:44:16;15.40;99.90
4828;DHT22;2428;48.732;9.148;2023-09-30T04:46:42;15.40;99.90
4828;DHT22;2428;48.732;9.148;2023-09-30T04:49:13;15.40;99.90
4828;DHT22;2428;48.732;9.148;2023-09-30T04:51:38;15.40;99.90
4828;DHT22;2428;48.732;9.148;2023-09-30T04:54:05;15.50;99.90
4828;DHT22;2428;48.732;9.148;2023-09-30T04:56:32;15.50;99.90
4828;DHT22;2428;48.732;9.148;2023-09-30T04:58:57;15.50;99.90
4828;DHT22;2428;48.732;9.148;2023-09-30T05:01:24;15.50;99.90
4828;DHT22;2428;48.732;9.148;2023-09-30T05:03:50;15.40;99.90
4828;DHT22;2428;48.732;9.148;2023-09-30T05:06:16;15.40;99.90
4828;DHT22;2428;48.732;9.148;2023-09-30T05:08:41;15.40;99.90
4828;DHT22;2428;48.732;9.148;2023-09-30T05:11:07;15.40;99.90
4828;DHT22;2428;48.732;9.148;2023-09-30T05:13:33;15.40;99.90
4828;DHT22;2428;48.732;9.148;2023-09-30T05:15:59;15.40;99.90
4828;DHT22;2428;48.732;9.148;2023-09-30T05:18:25;15.40;99.90
4828;DHT22;2428;48.732;9.148;2023-09-30T05:20:50;15.40;99.90
4828;DHT22;2428;48.732;9.148;2023-09-30T05:23:16;15.40;99.90
4828;DHT22;2428;48.732;9.148;2023-09-30T05:25:44;15.40;99.90
4828;DHT22;2428;48.732;9.148;2023-09-30T05:28:09;15.40;99.90
4828;DHT22;2428;48.732;9.148;2023-09-30T05:30:36;15.40;99.90
4828;DHT22;2428;48.732;9.148;2023-09-30T05:33:02;15.40;99.90
4828;DHT22;2428;48.732;9.148;2023-09-30T05:35:29;15.40;99.90
4828;DHT22;2428;48.732;9.148;2023-09-30T05:37:57;15.40;99.90
4828;DHT22;2428;48.732;9.148;2023-09-30T05:40:23;15.40;99.90
4828;DHT22;2428;48.732;9.148;2023-09-30T05:42:59;15.40;99.90
4828;DHT22;2428;48.732;9.148;2023-09-30T05:45:31;15.30;99.90
4828;DHT22;2428;48.732;9.148;2023-09-30T05:48:00;15.30;99.90
4828;DHT22;2428;48.732;9.148;2023-09-30T05:50:35;15.30;99.90
4828;DHT22;2428;48.732;9.148;2023-09-30T05:53:02;15.30;99.90
4828;DHT22;2428;48.732;9.148;2023-09-30T05:55:27;15.30;99.90
4828;DHT22;2428;48.732;9.148;2023-09-30T05:57:53;15.30;99.90
4828;DHT22;2428;48.732;9.148;2023-09-30T06:00:19;15.30;99.90
4828;DHT22;2428;48.732;9.148;2023-09-30T06:02:49;15.40;99.90
4828;DHT22;2428;48.732;9.148;2023-09-30T06:05:15;15.40;99.90
4828;DHT22;2428;48.732;9.148;2023-09-30T06:07:45;15.50;99.90
4828;DHT22;2428;48.732;9.148;2023-09-30T06:10:11;15.50;99.90
4828;DHT22;2428;48.732;9.148;2023-09-30T06:12:37;15.50;99.90
4828;DHT22;2428;48.732;9.148;2023-09-30T06:15:03;15.60;99.90
4828;DHT22;2428;48.732;9.148;2023-09-30T06:17:29;15.60;99.90
4828;DHT22;2428;48.732;9.148;2023-09-30T06:19:56;15.70;99.90
4828;DHT22;2428;48.732;9.148;2023-09-30T06:22:32;15.70;99.90
4828;DHT22;2428;48.732;9.148;2023-09-30T06:24:57;15.70;99.90
4828;DHT22;2428;48.732;9.148;2023-09-30T06:27:23;15.70;99.90
4828;DHT22;2428;48.732;9.148;2023-09-30T06:29:49;15.80;99.90
4828;DHT22;2428;48.732;9.148;2023-09-30T06:32:14;15.80;99.90
4828;DHT22;2428;48.732;9.148;2023-09-30T06:34:41;15.80;99.90
4828;DHT22;2428;48.732;9.148;2023-09-30T06:37:06;15.80;99.90
4828;DHT22;2428;48.732;9.148;2023-09-30T06:39:34;15.90;99.90
4828;DHT22;2428;48.732;9.148;2023-09-30T06:41:59;15.80;99.90
4828;DHT22;2428;48.732;9.148;2023-09-30T06:44:25;15.80;99.90
4828;DHT22;2428;48.732;9.148;2023-09-30T06:46:51;15.90;99.90
4828;DHT22;2428;48.732;9.148;2023-09-30T06:49:17;15.80;99.90
4828;DHT22;2428;48.732;9.148;2023-09-30T06:51:42;15.80;99.90
4828;DHT22;2428;48.732;9.148;2023-09-30T06:54:08;15.90;99.90
4828;DHT22;2428;48.732;9.148;2023-09-30T06:56:34;15.90;99.90
4828;DHT22;2428;48.732;9.148;2023-09-30T06:59:01;16.00;99.90
4828;DHT22;2428;48.732;9.148;2023-09-30T07:01:26;16.00;99.90
4828;DHT22;2428;48.732;9.148;2023-09-30T07:03:52;16.10;99.90
4828;DHT22;2428;48.732;9.148;2023-09-30T07:06:24;16.00;99.90
4828;DHT22;2428;48.732;9.148;2023-09-30T07:08:50;16.00;99.90
4828;DHT22;2428;48.732;9.148;2023-09-30T07:11:16;15.90;99.90
4828;DHT22;2428;48.732;9.148;2023-09-30T07:13:41;16.00;99.90
4828;DHT22;2428;48.732;9.148;2023-09-30T07:16:07;16.10;99.90
4828;DHT22;2428;48.732;9.148;2023-09-30T07:18:32;16.10;99.90
4828;DHT22;2428;48.732;9.148;2023-09-30T07:20:58;16.20;99.90
4828;DHT22;2428;48.732;9.148;2023-09-30T07:23:23;16.30;99.90
4828;DHT22;2428;48.732;9.148;2023-09-30T07:25:49;16.30;99.90
4828;DHT22;2428;48.732;9.148;2023-09-30T07:28:15;16.30;99.90
4828;DHT22;2428;48.732;9.148;2023-09-30T07:30:41;16.30;99.90
4828;DHT22;2428;48.732;9.148;2023-09-30T07:33:07;16.20;99.90
4828;DHT22;2428;48.732;9.148;2023-09-30T07:35:33;16.20;99.90
4828;DHT22;2428;48.732;9.148;2023-09-30T07:37:58;16.30;99.90
4828;DHT22;2428;48.732;9.148;2023-09-30T07:40:24;16.30;99.90
4828;DHT22;2428;48.732;9.148;2023-09-30T07:42:49;16.30;99.90
4828;DHT22;2428;48.732;9.148;2023-09-30T07:45:15;16.30;99.90
4828;DHT22;2428;48.732;9.148;2023-09-30T07:47:44;16.30;99.90
4828;DHT22;2428;48.732;9.148;2023-09-30T07:50:12;16.30;99.90
4828;DHT22;2428;48.732;9.148;2023-09-30T07:52:38;16.30;99.90
4828;DHT22;2428;48.732;9.148;2023-09-30T07:55:05;16.30;99.90
4828;DHT22;2428;48.732;9.148;2023-09-30T07:57:31;16.40;99.90
4828;DHT22;2428;48.732;9.148;2023-09-30T07:59:56;16.40;99.90
4828;DHT22;2428;48.732;9.148;2023-09-30T08:02:22;16.50;99.90
4828;DHT22;2428;48.732;9.148;2023-09-30T08:04:48;16.60;99.90
4828;DHT22;2428;48.732;9.148;2023-09-30T08:07:13;16.60;99.90
4828;DHT22;2428;48.732;9.148;2023-09-30T08:09:39;16.60;99.90
4828;DHT22;2428;48.732;9.148;2023-09-30T08:12:05;16.60;99.90
4828;DHT22;2428;48.732;9.148;2023-09-30T08:14:31;16.60;99.90
4828;DHT22;2428;48.732;9.148;2023-09-30T08:16:57;16.70;99.90
4828;DHT22;2428;48.732;9.148;2023-09-30T08:19:23;16.80;99.90
4828;DHT22;2428;48.732;9.148;2023-09-30T08:21:49;16.90;99.90
4828;DHT22;2428;48.732;9.148;2023-09-30T08:24:14;17.00;99.90
4828;DHT22;2428;48.732;9.148;2023-09-30T08:26:40;17.00;99.90
4828;DHT22;2428;48.732;9.148;2023-09-30T08:29:06;17.10;99.90
4828;DHT22;2428;48.732;9.148;2023-09-30T08:31:32;17.20;99.90
4828;DHT22;2428;48.732;9.148;2023-09-30T08:33:58;17.20;99.90
4828;DHT22;2428;48.732;9.148;2023-09-30T08:36:23;17.20;99.90
4828;DHT22;2428;48.732;9.148;2023-09-30T08:38:50;17.30;99.90
4828;DHT22;2428;48.732;9.148;2023-09-30T08:41:32;17.30;99.90
4828;DHT22;2428;48.732;9.148;2023-09-30T08:44:02;17.40;99.90
4828;DHT22;2428;48.732;9.148;2023-09-30T08:46:31;17.40;99.90
4828;DHT22;2428;48.732;9.148;2023-09-30T08:48:58;17.50;99.90
4828;DHT22;2428;48.732;9.148;2023-09-30T08:51:25;17.40;99.90
4828;DHT22;2428;48.732;9.148;2023-09-30T08:53:52;17.50;99.90
4828;DHT22;2428;48.732;9.148;2023-09-30T08:56:21;17.60;99.90
4828;DHT22;2428;48.732;9.148;2023-09-30T08:58:49;17.60;99.90
4828;DHT22;2428;48.732;9.148;2023-09-30T09:01:15;17.60;99.90
4828;DHT22;2428;48.732;9.148;2023-09-30T09:03:40;17.60;99.90
4828;DHT22;2428;48.732;9.148;2023-09-30T09:06:06;17.60;99.90
4828;DHT22;2428;48.732;9.148;2023-09-30T09:08:31;17.20;99.90
4828;DHT22;2428;48.732;9.148;2023-09-30T09:10:59;17.20;99.90
4828;DHT22;2428;48.732;9.148;2023-09-30T09:13:26;17.40;99.90
4828;DHT22;2428;48.732;9.148;2023-09-30T09:16:10;17.60;99.90
4828;DHT22;2428;48.732;9.148;2023-09-30T09:18:36;17.70;99.90
4828;DHT22;2428;48.732;9.148;2023-09-30T09:21:28;17.70;99.90
4828;DHT22;2428;48.732;9.148;2023-09-30T09:23:56;17.80;99.90
4828;DHT22;2428;48.732;9.148;2023-09-30T09:26:25;17.70;99.90
4828;DHT22;2428;48.732;9.148;2023-09-30T09:28:59;17.90;99.90
4828;DHT22;2428;48.732;9.148;2023-09-30T09:31:31;18.00;99.90
4828;DHT22;2428;48.732;9.148;2023-09-30T09:33:57;18.20;99.90
4828;DHT22;2428;48.732;9.148;2023-09-30T09:36:39;18.20;99.90
4828;DHT22;2428;48.732;9.148;2023-09-30T09:39:06;18.40;99.90
4828;DHT22;2428;48.732;9.148;2023-09-30T09:41:32;18.50;99.90
4828;DHT22;2428;48.732;9.148;2023-09-30T09:43:59;18.70;99.90
4828;DHT22;2428;48.732;9.148;2023-09-30T09:46:25;19.00;99.90
4828;DHT22;2428;48.732;9.148;2023-09-30T09:48:53;19.10;99.90
4828;DHT22;2428;48.732;9.148;2023-09-30T09:51:20;19.10;99.90
4828;DHT22;2428;48.732;9.148;2023-09-30T09:53:46;19.20;99.90
4828;DHT22;2428;48.732;9.148;2023-09-30T09:56:14;19.40;99.90
4828;DHT22;2428;48.732;9.148;2023-09-30T09:58:40;19.70;99.90
4828;DHT22;2428;48.732;9.148;2023-09-30T10:01:11;20.10;99.90
4828;DHT22;2428;48.732;9.148;2023-09-30T10:03:40;20.30;99.90
4828;DHT22;2428;48.732;9.148;2023-09-30T10:06:07;20.50;99.90
4828;DHT22;2428;48.732;9.148;2023-09-30T10:08:40;20.80;99.90
4828;DHT22;2428;48.732;9.148;2023-09-30T10:11:08;20.90;99.90
4828;DHT22;2428;48.732;9.148;2023-09-30T10:13:54;21.00;99.90
4828;DHT22;2428;48.732;9.148;2023-09-30T10:19:20;22.40;99.90
4828;DHT22;2428;48.732;9.148;2023-09-30T10:24:47;22.70;99.90
4828;DHT22;2428;48.732;9.148;2023-09-30T10:29:58;22.30;99.90
4828;DHT22;2428;48.732;9.148;2023-09-30T10:35:16;22.00;99.90
4828;DHT22;2428;48.732;9.148;2023-09-30T10:37:43;21.70;99.90
4828;DHT22;2428;48.732;9.148;2023-09-30T10:40:08;21.40;99.90
4828;DHT22;2428;48.732;9.148;2023-09-30T10:42:48;21.20;99.90
4828;DHT22;2428;48.732;9.148;2023-09-30T10:50:54;20.50;99.90
4828;DHT22;2428;48.732;9.148;2023-09-30T10:53:21;20.50;99.90
4828;DHT22;2428;48.732;9.148;2023-09-30T10:55:47;20.40;99.90
4828;DHT22;2428;48.732;9.148;2023-09-30T10:58:19;20.50;99.90
4828;DHT22;2428;48.732;9.148;2023-09-30T11:01:03;20.60;99.90
4828;DHT22;2428;48.732;9.148;2023-09-30T11:03:30;20.60;99.90
4828;DHT22;2428;48.732;9.148;2023-09-30T11:05:55;20.60;99.90
4828;DHT22;2428;48.732;9.148;2023-09-30T11:08:21;20.50;99.90
4828;DHT22;2428;48.732;9.148;2023-09-30T11:10:50;20.30;99.90
4828;DHT22;2428;48.732;9.148;2023-09-30T11:13:17;20.30;99.90
4828;DHT22;2428;48.732;9.148;2023-09-30T11:15:44;20.20;99.90
4828;DHT22;2428;48.732;9.148;2023-09-30T11:18:14;20.10;99.90
4828;DHT22;2428;48.732;9.148;2023-09-30T11:20:41;20.00;99.90
4828;DHT22;2428;48.732;9.148;2023-09-30T11:23:07;19.90;99.90
4828;DHT22;2428;48.732;9.148;2023-09-30T11:25:37;19.90;99.90
4828;DHT22;2428;48.732;9.148;2023-09-30T11:28:18;19.90;99.90
4828;DHT22;2428;48.732;9.148;2023-09-30T11:30:58;20.00;99.90
4828;DHT22;2428;48.732;9.148;2023-09-30T11:33:25;19.90;99.90
4828;DHT22;2428;48.732;9.148;2023-09-30T11:35:57;20.10;99.90
4828;DHT22;2428;48.732;9.148;2023-09-30T11:38:24;20.10;99.90
4828;DHT22;2428;48.732;9.148;2023-09-30T11:41:06;20.20;99.90
4828;DHT22;2428;48.732;9.148;2023-09-30T11:43:33;20.30;99.90
4828;DHT22;2428;48.732;9.148;2023-09-30T11:46:10;20.40;99.90
4828;DHT22;2428;48.732;9.148;2023-09-30T11:49:04;20.40;99.90
4828;DHT22;2428;48.732;9.148;2023-09-30T11:51:43;20.40;99.90
4828;DHT22;2428;48.732;9.148;2023-09-30T11:54:11;20.30;99.90
4828;DHT22;2428;48.732;9.148;2023-09-30T11:56:37;20.10;99.90
4828;DHT22;2428;48.732;9.148;2023-09-30T11:59:03;20.00;99.90
4828;DHT22;2428;48.732;9.148;2023-09-30T12:01:30;19.90;99.90
4828;DHT22;2428;48.732;9.148;2023-09-30T12:04:00;19.80;99.90
4828;DHT22;2428;48.732;9.148;2023-09-30T12:06:26;19.80;99.90
4828;DHT22;2428;48.732;9.148;2023-09-30T12:08:52;19.70;99.90
4828;DHT22;2428;48.732;9.148;2023-09-30T12:11:20;19.80;99.90
4828;DHT22;2428;48.732;9.148;2023-09-30T12:13:49;19.80;99.90
4828;DHT22;2428;48.732;9.148;2023-09-30T12:16:16;19.90;99.90
4828;DHT22;2428;48.732;9.148;2023-09-30T12:18:41;20.00;99.90
4828;DHT22;2428;48.732;9.148;2023-09-30T12:21:11;19.90;99.90
4828;DHT22;2428;48.732;9.148;2023-09-30T12:23:39;20.00;99.90
4828;DHT22;2428;48.732;9.148;2023-09-30T12:26:04;20.00;99.90
4828;DHT22;2428;48.732;9.148;2023-09-30T12:28:34;20.10;99.90
4828;DHT22;2428;48.732;9.148;2023-09-30T12:31:00;20.20;99.90
4828;DHT22;2428;48.732;9.148;2023-09-30T12:33:30;20.20;99.90
4828;DHT22;2428;48.732;9.148;2023-09-30T12:35:56;20.20;99.90
4828;DHT22;2428;48.732;9.148;2023-09-30T12:38:23;20.10;99.90
4828;DHT22;2428;48.732;9.148;2023-09-30T12:40:51;20.00;99.90
4828;DHT22;2428;48.732;9.148;2023-09-30T12:43:17;19.70;99.90
4828;DHT22;2428;48.732;9.148;2023-09-30T12:45:43;19.80;99.90
4828;DHT22;2428;48.732;9.148;2023-09-30T12:48:08;19.70;99.90
4828;DHT22;2428;48.732;9.148;2023-09-30T12:50:34;19.60;99.90
4828;DHT22;2428;48.732;9.148;2023-09-30T12:52:59;19.60;99.90
4828;DHT22;2428;48.732;9.148;2023-09-30T12:55:25;19.50;99.90
4828;DHT22;2428;48.732;9.148;2023-09-30T12:57:52;19.50;99.90
4828;DHT22;2428;48.732;9.148;2023-09-30T13:00:18;19.60;99.90
4828;DHT22;2428;48.732;9.148;2023-09-30T13:02:44;19.60;99.90
4828;DHT22;2428;48.732;9.148;2023-09-30T13:05:10;19.60;99.90
4828;DHT22;2428;48.732;9.148;2023-09-30T13:07:37;19.60;99.90
4828;DHT22;2428;48.732;9.148;2023-09-30T13:10:03;19.70;99.90
4828;DHT22;2428;48.732;9.148;2023-09-30T13:12:31;19.80;99.90
4828;DHT22;2428;48.732;9.148;2023-09-30T13:14:58;19.90;99.90
4828;DHT22;2428;48.732;9.148;2023-09-30T13:17:24;19.90;99.90
4828;DHT22;2428;48.732;9.148;2023-09-30T13:19:51;20.10;99.90
4828;DHT22;2428;48.732;9.148;2023-09-30T13:22:19;20.10;99.90
4828;DHT22;2428;48.732;9.148;2023-09-30T13:24:45;20.10;99.90
4828;DHT22;2428;48.732;9.148;2023-09-30T13:27:11;20.10;99.90
4828;DHT22;2428;48.732;9.148;2023-09-30T13:29:36;20.00;99.90
4828;DHT22;2428;48.732;9.148;2023-09-30T13:32:02;20.00;99.90
4828;DHT22;2428;48.732;9.148;2023-09-30T13:34:29;20.00;99.90
4828;DHT22;2428;48.732;9.148;2023-09-30T13:36:55;20.00;99.90
4828;DHT22;2428;48.732;9.148;2023-09-30T13:39:21;20.00;99.90
4828;DHT22;2428;48.732;9.148;2023-09-30T13:41:47;19.90;99.90
4828;DHT22;2428;48.732;9.148;2023-09-30T13:44:13;19.90;99.90
4828;DHT22;2428;48.732;9.148;2023-09-30T13:46:39;20.00;99.90
4828;DHT22;2428;48.732;9.148;2023-09-30T13:49:04;20.00;99.90
4828;DHT22;2428;48.732;9.148;2023-09-30T13:51:30;20.10;99.90
4828;DHT22;2428;48.732;9.148;2023-09-30T13:53:56;20.20;99.90
4828;DHT22;2428;48.732;9.148;2023-09-30T13:56:21;20.10;99.90
4828;DHT22;2428;48.732;9.148;2023-09-30T13:58:47;20.10;99.90
4828;DHT22;2428;48.732;9.148;2023-09-30T14:01:14;20.10;99.90
4828;DHT22;2428;48.732;9.148;2023-09-30T14:03:40;20.00;99.90
4828;DHT22;2428;48.732;9.148;2023-09-30T14:06:10;19.90;99.90
4828;DHT22;2428;48.732;9.148;2023-09-30T14:08:36;19.80;99.90
4828;DHT22;2428;48.732;9.148;2023-09-30T14:11:02;19.70;99.90
4828;DHT22;2428;48.732;9.148;2023-09-30T14:13:27;19.60;99.90
4828;DHT22;2428;48.732;9.148;2023-09-30T14:15:53;19.50;99.90
4828;DHT22;2428;48.732;9.148;2023-09-30T14:18:18;19.50;99.90
4828;DHT22;2428;48.732;9.148;2023-09-30T14:20:44;19.40;99.90
4828;DHT22;2428;48.732;9.148;2023-09-30T14:23:11;19.30;99.90
4828;DHT22;2428;48.732;9.148;2023-09-30T14:25:37;19.30;99.90
4828;DHT22;2428;48.732;9.148;2023-09-30T14:28:02;19.30;99.90
4828;DHT22;2428;48.732;9.148;2023-09-30T14:30:28;19.30;99.90
4828;DHT22;2428;48.732;9.148;2023-09-30T14:32:54;19.30;99.90
4828;DHT22;2428;48.732;9.148;2023-09-30T14:35:20;19.40;99.90
4828;DHT22;2428;48.732;9.148;2023-09-30T14:37:46;19.50;99.90
4828;DHT22;2428;48.732;9.148;2023-09-30T14:40:11;19.60;99.90
4828;DHT22;2428;48.732;9.148;2023-09-30T14:42:38;19.70;99.90
4828;DHT22;2428;48.732;9.148;2023-09-30T14:45:04;19.80;99.90
4828;DHT22;2428;48.732;9.148;2023-09-30T14:47:30;19.80;99.90
4828;DHT22;2428;48.732;9.148;2023-09-30T14:49:55;19.90;99.90
4828;DHT22;2428;48.732;9.148;2023-09-30T14:52:21;19.90;99.90
4828;DHT22;2428;48.732;9.148;2023-09-30T14:54:47;19.90;99.90
4828;DHT22;2428;48.732;9.148;2023-09-30T14:57:12;19.90;99.90
4828;DHT22;2428;48.732;9.148;2023-09-30T14:59:41;20.00;99.90
4828;DHT22;2428;48.732;9.148;2023-09-30T15:02:07;20.00;99.90
4828;DHT22;2428;48.732;9.148;2023-09-30T15:04:36;20.00;99.90
4828;DHT22;2428;48.732;9.148;2023-09-30T15:07:02;20.00;99.90
4828;DHT22;2428;48.732;9.148;2023-09-30T15:09:28;20.00;99.90
4828;DHT22;2428;48.732;9.148;2023-09-30T15:11:53;19.90;99.90
4828;DHT22;2428;48.732;9.148;2023-09-30T15:14:19;20.00;99.90
4828;DHT22;2428;48.732;9.148;2023-09-30T15:16:45;19.90;99.90
4828;DHT22;2428;48.732;9.148;2023-09-30T15:19:11;19.80;99.90
4828;DHT22;2428;48.732;9.148;2023-09-30T15:21:36;19.80;99.90
4828;DHT22;2428;48.732;9.148;2023-09-30T15:24:03;19.70;99.90
4828;DHT22;2428;48.732;9.148;2023-09-30T15:26:30;19.70;99.90
4828;DHT22;2428;48.732;9.148;2023-09-30T15:28:56;19.60;99.90
4828;DHT22;2428;48.732;9.148;2023-09-30T15:31:29;19.60;99.90
4828;DHT22;2428;48.732;9.148;2023-09-30T15:33:56;19.60;99.90
4828;DHT22;2428;48.732;9.148;2023-09-30T15:36:22;19.70;99.90
4828;DHT22;2428;48.732;9.148;2023-09-30T15:38:48;19.70;99.90
4828;DHT22;2428;48.732;9.148;2023-09-30T15:41:14;19.70;99.90
4828;DHT22;2428;48.732;9.148;2023-09-30T15:43:40;19.70;99.90
4828;DHT22;2428;48.732;9.148;2023-09-30T15:46:08;19.60;99.90
4828;DHT22;2428;48.732;9.148;2023-09-30T15:48:33;19.60;99.90
4828;DHT22;2428;48.732;9.148;2023-09-30T15:51:00;19.60;99.90
4828;DHT22;2428;48.732;9.148;2023-09-30T15:53:26;19.60;99.90
4828;DHT22;2428;48.732;9.148;2023-09-30T15:55:53;19.50;99.90
4828;DHT22;2428;48.732;9.148;2023-09-30T15:58:19;19.50;99.90
4828;DHT22;2428;48.732;9.148;2023-09-30T16:00:44;19.40;99.90
4828;DHT22;2428;48.732;9.148;2023-09-30T16:03:12;19.40;99.90
4828;DHT22;2428;48.732;9.148;2023-09-30T16:05:38;19.40;99.90
4828;DHT22;2428;48.732;9.148;2023-09-30T16:08:05;19.30;99.90
4828;DHT22;2428;48.732;9.148;2023-09-30T16:10:31;19.30;99.90
4828;DHT22;2428;48.732;9.148;2023-09-30T16:12:57;19.20;99.90
4828;DHT22;2428;48.732;9.148;2023-09-30T16:15:23;19.20;99.90
4828;DHT22;2428;48.732;9.148;2023-09-30T16:17:48;19.20;99.90